Time;durP1;ratioP1;P1;durP2;ratioP2;P2;SDS_P1;SDS_P2;PMS_P1;PMS_P2;Temp;Humidity;BMP_temperature;BMP_pressure;BME280_temperature;BME280_humidity;BME280_pressure;Samples;Min_cycle;Max_cycle;Signal;HPM_P1;HPM_P2
2022/08/15 00:00:10;;;;;;;7.83;7.03;;;17.80;99.90;19.30;96057.00;;;;5078045;28;20230;-87
2022/08/15 00:02:59;;;;;;;10.13;6.73;;;17.80;99.90;19.20;96059.00;;;;5082819;28;20208;-87
2022/08/15 00:05:50;;;;;;;7.40;6.70;;;17.90;99.90;19.20;96057.00;;;;5079054;28;20196;-87
2022/08/15 00:08:44;;;;;;;7.13;6.27;;;17.90;99.90;19.00;96053.00;;;;5077100;28;20192;-88
2022/08/15 00:11:37;;;;;;;9.50;6.83;;;17.90;99.90;19.10;96052.00;;;;5076417;28;20215;-87
2022/08/15 00:14:30;;;;;;;7.83;6.80;;;17.90;99.90;19.00;96045.00;;;;5080121;28;20220;-87
2022/08/15 00:17:20;;;;;;;8.37;6.97;;;17.90;99.90;19.10;96038.00;;;;5075403;28;20200;-87
2022/08/15 00:20:11;;;;;;;7.63;6.83;;;17.90;99.90;19.00;96034.00;;;;5079430;28;20212;-87
2022/08/15 00:23:00;;;;;;;8.40;7.60;;;17.90;99.90;18.90;96019.00;;;;5074079;28;20208;-87
2022/08/15 00:25:54;;;;;;;8.73;7.53;;;17.80;99.90;18.60;96020.00;;;;5078572;28;20212;-87
2022/08/15 00:28:43;;;;;;;8.20;7.40;;;17.80;99.90;18.70;96021.00;;;;5070675;28;20200;-88
2022/08/15 00:31:32;;;;;;;7.30;6.43;;;17.70;99.90;18.50;96022.00;;;;5068081;28;20231;-87
2022/08/15 00:34:23;;;;;;;8.00;7.20;;;17.60;99.90;18.30;96031.00;;;;5075513;28;20203;-88
2022/08/15 00:37:12;;;;;;;9.30;6.73;;;17.50;99.90;18.30;96015.00;;;;5067425;28;20211;-88
2022/08/15 00:40:01;;;;;;;8.67;6.87;;;17.50;99.90;18.70;96023.00;;;;5077793;28;20235;-87
2022/08/15 00:42:51;;;;;;;7.63;6.70;;;17.40;99.90;18.40;96015.00;;;;5073687;28;20204;-88
2022/08/15 00:45:41;;;;;;;8.77;7.30;;;17.40;99.90;18.40;96019.00;;;;5077322;28;20199;-88
2022/08/15 00:48:46;;;;;;;7.40;6.57;;;17.40;99.90;18.40;96027.00;;;;5074030;28;20200;-87
2022/08/15 00:51:40;;;;;;;10.93;7.13;;;17.30;99.90;18.30;96017.00;;;;5067934;28;20211;-88
2022/08/15 00:54:35;;;;;;;8.60;7.33;;;17.30;99.90;18.20;96015.00;;;;5059619;28;20642;-87
2022/08/15 00:57:28;;;;;;;8.03;7.27;;;17.20;99.90;18.30;96011.00;;;;5072362;28;20212;-87
2022/08/15 01:00:24;;;;;;;8.13;7.33;;;17.20;99.90;18.20;96015.00;;;;5076087;28;20224;-87
2022/08/15 01:03:17;;;;;;;15.10;7.60;;;17.20;99.90;17.80;96013.00;;;;5078814;28;20228;-87
2022/08/15 01:06:07;;;;;;;8.20;7.33;;;17.00;99.90;17.70;96011.00;;;;5068918;28;20211;-87
2022/08/15 01:08:56;;;;;;;8.80;7.90;;;16.90;99.90;18.00;96020.00;;;;5075377;28;20196;-87
2022/08/15 01:11:51;;;;;;;7.20;6.57;;;16.90;99.90;17.80;96015.00;;;;5083493;28;20195;-88
2022/08/15 01:14:43;;;;;;;8.23;7.40;;;16.80;99.90;17.80;96019.00;;;;5075875;28;20195;-86
2022/08/15 01:17:34;;;;;;;7.30;6.70;;;16.80;99.90;17.80;96016.00;;;;5079467;28;20216;-87
2022/08/15 01:20:26;;;;;;;8.67;6.97;;;16.80;99.90;17.80;96012.00;;;;5075406;28;20230;-87
2022/08/15 01:23:24;;;;;;;7.27;6.60;;;16.70;99.90;17.50;96003.00;;;;5063018;28;20560;-88
2022/08/15 01:26:16;;;;;;;9.70;7.30;;;16.70;99.90;17.30;96000.00;;;;5073497;28;20219;-87
2022/08/15 01:29:04;;;;;;;7.70;6.97;;;16.60;99.90;17.10;96008.00;;;;5076818;28;20193;-87
2022/08/15 01:31:53;;;;;;;8.00;7.20;;;16.50;99.90;17.10;95995.00;;;;5057537;28;20507;-87
2022/08/15 01:34:42;;;;;;;9.13;7.63;;;16.40;99.90;17.20;95998.00;;;;5071603;28;20582;-88
2022/08/15 01:37:32;;;;;;;9.43;7.10;;;16.30;99.90;17.30;95997.00;;;;5073299;28;20218;-87
2022/08/15 01:40:30;;;;;;;8.87;7.03;;;16.30;99.90;17.20;95987.00;;;;5071076;28;20450;-88
2022/08/15 01:43:26;;;;;;;8.70;7.67;;;16.30;99.90;17.40;95987.00;;;;5078547;28;20208;-87
2022/08/15 01:46:15;;;;;;;8.40;7.57;;;16.20;99.90;17.20;95984.00;;;;5063047;28;20188;-88
2022/08/15 01:49:12;;;;;;;10.13;7.50;;;16.20;99.90;17.20;95992.00;;;;5077404;28;20278;-88
2022/08/15 01:52:05;;;;;;;8.77;7.00;;;16.20;99.90;17.30;95992.00;;;;5087299;28;20188;-87
2022/08/15 01:54:58;;;;;;;8.93;8.03;;;16.10;99.90;17.30;95997.00;;;;5092808;28;20188;-87
2022/08/15 01:57:47;;;;;;;7.50;6.80;;;16.10;99.90;17.40;95984.00;;;;5088332;28;20196;-87
2022/08/15 02:00:38;;;;;;;8.70;7.87;;;16.20;99.90;17.40;95987.00;;;;5094793;28;20211;-88
2022/08/15 02:03:34;;;;;;;9.33;8.43;;;16.20;99.90;17.30;95987.00;;;;5093002;28;20195;-87
2022/08/15 02:06:29;;;;;;;7.63;6.90;;;16.20;99.90;17.10;95986.00;;;;5079513;28;20193;-88
2022/08/15 02:09:20;;;;;;;8.93;7.87;;;16.10;99.90;16.70;95995.00;;;;5090262;28;20208;-87
2022/08/15 02:12:10;;;;;;;8.30;7.47;;;16.00;99.90;16.50;95987.00;;;;5071771;28;20208;-87
2022/08/15 02:15:00;;;;;;;9.07;7.83;;;15.90;99.90;16.10;95985.00;;;;5060075;28;20207;-87
2022/08/15 02:17:50;;;;;;;9.53;7.87;;;15.70;99.90;16.20;95987.00;;;;5074749;28;20207;-87
2022/08/15 02:20:39;;;;;;;10.57;8.33;;;15.60;99.90;16.70;95987.00;;;;5076699;28;20229;-87
2022/08/15 02:23:28;;;;;;;8.53;7.70;;;15.60;99.90;16.90;95976.00;;;;5084782;28;20204;-87
2022/08/15 02:26:17;;;;;;;12.53;8.50;;;15.60;99.90;17.10;95982.00;;;;5079412;28;20196;-87
2022/08/15 02:29:07;;;;;;;8.87;7.73;;;15.70;99.90;16.70;95987.00;;;;5075301;28;20208;-88
2022/08/15 02:32:00;;;;;;;8.40;7.43;;;15.70;99.90;16.20;95985.00;;;;5068510;28;20203;-87
2022/08/15 02:34:51;;;;;;;8.13;7.33;;;15.60;99.90;16.20;95991.00;;;;5083060;28;20204;-87
2022/08/15 02:37:41;;;;;;;7.80;7.00;;;15.50;99.90;16.50;95987.00;;;;5070312;28;20208;-87
2022/08/15 02:40:31;;;;;;;10.00;8.73;;;15.40;99.90;16.40;95984.00;;;;5076832;28;20224;-87
2022/08/15 02:43:22;;;;;;;7.57;6.80;;;15.40;99.90;16.50;95991.00;;;;5075652;28;20200;-87
2022/08/15 02:46:11;;;;;;;8.53;7.27;;;15.40;99.90;16.70;95990.00;;;;5083627;28;20207;-87
2022/08/15 02:49:03;;;;;;;11.47;8.40;;;15.50;99.90;16.60;95984.00;;;;5078595;28;20207;-87
2022/08/15 02:51:54;;;;;;;10.33;7.90;;;15.50;99.90;16.50;95972.00;;;;5076813;28;20206;-87
2022/08/15 02:54:43;;;;;;;10.97;7.80;;;15.50;99.90;16.40;95976.00;;;;5066524;28;20219;-87
2022/08/15 02:57:33;;;;;;;11.63;8.03;;;15.50;99.90;16.20;95973.00;;;;5070825;28;20224;-88
2022/08/15 03:00:22;;;;;;;10.77;8.17;;;15.40;99.90;15.90;95976.00;;;;5067750;28;20599;-87
2022/08/15 03:03:14;;;;;;;9.33;8.43;;;15.30;99.90;15.90;95981.00;;;;5070947;28;20208;-87
2022/08/15 03:06:03;;;;;;;8.73;7.80;;;15.20;99.90;15.90;95966.00;;;;5073432;28;20208;-87
2022/08/15 03:09:00;;;;;;;8.60;7.77;;;15.10;99.90;15.80;95965.00;;;;5066426;28;20207;-87
2022/08/15 03:11:49;;;;;;;8.87;7.13;;;15.00;99.90;15.80;95972.00;;;;5069394;28;20206;-87
2022/08/15 03:14:38;;;;;;;9.20;8.17;;;15.00;99.90;15.80;95975.00;;;;5081306;28;20207;-86
2022/08/15 03:17:27;;;;;;;9.47;8.37;;;15.00;99.90;15.90;95984.00;;;;5082218;28;20228;-86
2022/08/15 03:20:16;;;;;;;10.97;8.40;;;15.00;99.90;16.20;95982.00;;;;5082067;28;20239;-87
2022/08/15 03:23:07;;;;;;;9.93;8.93;;;15.00;99.90;16.40;95983.00;;;;5068859;28;20205;-89
2022/08/15 03:25:59;;;;;;;9.23;7.67;;;15.10;99.90;16.40;95977.00;;;;5054422;28;20211;-89
2022/08/15 03:28:48;;;;;;;9.83;8.43;;;15.20;99.90;16.20;95988.00;;;;5071301;28;20203;-89
2022/08/15 03:31:37;;;;;;;11.23;8.67;;;15.20;99.90;16.00;95981.00;;;;5052554;28;20205;-89
2022/08/15 03:34:26;;;;;;;12.80;7.60;;;15.10;99.90;15.70;95979.00;;;;5061961;28;20689;-88
2022/08/15 03:37:15;;;;;;;10.47;8.77;;;15.00;99.90;15.50;95990.00;;;;5068157;28;20619;-89
2022/08/15 03:40:06;;;;;;;8.90;7.50;;;14.90;99.90;15.90;95992.00;;;;5062212;28;20224;-89
2022/08/15 03:43:00;;;;;;;11.37;7.97;;;14.90;99.90;15.90;95987.00;;;;5057304;28;20192;-89
2022/08/15 03:45:52;;;;;;;12.23;8.30;;;14.90;99.90;15.70;95980.00;;;;5053529;28;20607;-88
2022/08/15 03:48:47;;;;;;;12.00;9.87;;;14.80;99.90;15.70;95982.00;;;;5053952;28;20203;-88
2022/08/15 03:51:36;;;;;;;12.50;8.73;;;14.70;99.90;15.50;95979.00;;;;5060991;28;20736;-89
2022/08/15 03:54:25;;;;;;;8.83;7.93;;;14.70;99.90;15.50;95981.00;;;;5061187;28;20592;-89
2022/08/15 03:57:13;;;;;;;9.73;7.87;;;14.70;99.90;15.20;95985.00;;;;5060265;28;20229;-89
2022/08/15 04:00:07;;;;;;;10.63;8.13;;;14.60;99.90;15.30;95980.00;;;;5067307;28;20228;-88
2022/08/15 04:03:07;;;;;;;11.20;8.80;;;14.50;99.90;15.40;95982.00;;;;5070604;28;20601;-88
2022/08/15 04:05:59;;;;;;;9.87;8.33;;;14.50;99.90;15.50;95976.00;;;;5070323;28;20212;-89
2022/08/15 04:08:51;;;;;;;10.37;9.27;;;14.50;99.90;15.40;95980.00;;;;5067097;28;20195;-88
2022/08/15 04:11:40;;;;;;;11.83;8.77;;;14.50;99.90;15.30;95973.00;;;;5059642;28;20207;-89
2022/08/15 04:14:29;;;;;;;11.77;9.37;;;14.50;99.90;15.10;95970.00;;;;5074213;28;20237;-90
2022/08/15 04:17:21;;;;;;;11.23;8.57;;;14.40;99.90;14.80;95972.00;;;;5064958;28;20228;-89
2022/08/15 04:20:11;;;;;;;10.23;8.27;;;14.30;99.90;14.60;95982.00;;;;5077718;28;20227;-87
2022/08/15 04:23:01;;;;;;;11.23;9.37;;;14.20;99.90;15.10;95975.00;;;;5068050;28;20200;-89
2022/08/15 04:25:50;;;;;;;10.87;9.03;;;14.20;99.90;15.60;95977.00;;;;5073898;28;20204;-88
2022/08/15 04:28:39;;;;;;;12.30;8.77;;;14.30;99.90;15.70;95979.00;;;;5075324;28;20223;-88
2022/08/15 04:31:28;;;;;;;11.10;9.93;;;14.40;99.90;15.70;95983.00;;;;5059560;28;20203;-88
2022/08/15 04:34:19;;;;;;;11.67;8.83;;;14.50;99.90;15.40;95981.00;;;;5074431;28;20191;-88
2022/08/15 04:37:09;;;;;;;9.40;8.37;;;14.60;99.90;15.40;95983.00;;;;5061792;28;20220;-88
2022/08/15 04:39:58;;;;;;;11.50;9.17;;;14.50;99.90;15.40;95977.00;;;;5074590;28;20226;-88
2022/08/15 04:42:49;;;;;;;10.10;8.60;;;14.50;99.90;15.50;95981.00;;;;5069969;28;20196;-89
2022/08/15 04:45:40;;;;;;;12.37;8.53;;;14.60;99.90;15.80;95978.00;;;;5068584;28;20225;-89
2022/08/15 04:48:30;;;;;;;9.73;7.87;;;14.60;99.90;16.10;95965.00;;;;5050475;28;20211;-88
2022/08/15 04:51:21;;;;;;;9.30;8.30;;;14.80;99.90;16.10;95972.00;;;;5054447;28;20200;-89
2022/08/15 04:54:10;;;;;;;11.07;9.27;;;14.90;99.90;15.80;95976.00;;;;5052626;28;20220;-88
2022/08/15 04:56:59;;;;;;;9.87;8.73;;;15.00;99.90;15.90;95957.00;;;;5057521;28;20288;-90
2022/08/15 04:59:48;;;;;;;9.30;8.00;;;14.90;99.90;15.60;95945.00;;;;5063091;28;20712;-88
2022/08/15 05:02:38;;;;;;;9.70;8.70;;;15.00;99.90;15.40;95959.00;;;;5066775;28;20200;-89
2022/08/15 05:05:28;;;;;;;9.47;8.37;;;14.90;99.90;15.40;95949.00;;;;5074110;28;20204;-87
2022/08/15 05:08:19;;;;;;;8.17;7.30;;;14.80;99.90;15.50;95958.00;;;;5079660;28;20207;-88
2022/08/15 05:11:17;;;;;;;9.70;8.50;;;14.80;99.90;15.70;95962.00;;;;5072316;28;20238;-88
2022/08/15 05:14:06;;;;;;;9.20;7.97;;;14.80;99.90;15.70;95948.00;;;;5056391;28;20209;-87
2022/08/15 05:16:54;;;;;;;8.13;7.33;;;14.90;99.90;15.70;95959.00;;;;5079243;28;20231;-87
2022/08/15 05:19:43;;;;;;;10.73;9.43;;;15.00;99.90;16.10;95953.00;;;;5066476;28;20223;-89
2022/08/15 05:22:32;;;;;;;7.97;7.17;;;15.10;99.90;16.30;95955.00;;;;5072450;28;20245;-89
2022/08/15 05:25:23;;;;;;;10.70;8.40;;;15.30;99.90;16.60;95956.00;;;;5079102;28;20207;-89
2022/08/15 05:28:14;;;;;;;9.37;8.27;;;15.40;99.90;16.80;95957.00;;;;5074359;28;20203;-88
2022/08/15 05:31:06;;;;;;;9.43;8.43;;;15.60;99.90;17.00;95965.00;;;;5064552;28;20247;-89
2022/08/15 05:33:55;;;;;;;10.93;8.67;;;15.70;99.90;17.10;95959.00;;;;5070181;28;20196;-89
2022/08/15 05:36:49;;;;;;;8.50;7.43;;;15.90;99.90;17.20;95953.00;;;;5054866;28;20197;-89
2022/08/15 05:39:40;;;;;;;9.37;8.27;;;15.90;99.90;17.20;95956.00;;;;5065190;28;20235;-88
2022/08/15 05:42:40;;;;;;;9.73;8.30;;;16.10;99.90;17.30;95957.00;;;;5073238;28;20203;-90
2022/08/15 05:45:37;;;;;;;11.10;8.73;;;16.20;99.90;17.30;95951.00;;;;5060724;28;20197;-88
2022/08/15 05:48:33;;;;;;;9.77;8.73;;;17.40;99.90;17.40;95951.00;;;;5090235;28;20200;-86
2022/08/15 05:51:32;;;;;;;10.77;8.17;;;16.30;99.90;18.00;95946.00;;;;5087192;28;20200;-86
2022/08/15 05:54:30;;;;;;;11.70;7.47;;;16.50;99.90;18.10;95951.00;;;;5075764;28;20614;-90
2022/08/15 05:57:25;;;;;;;10.47;8.10;;;16.70;99.90;18.20;95944.00;;;;5069253;28;20212;-88
2022/08/15 06:00:17;;;;;;;10.27;9.10;;;16.90;99.90;18.30;95946.00;;;;5066543;28;20558;-88
2022/08/15 06:03:14;;;;;;;8.90;8.00;;;17.00;99.90;18.50;95943.00;;;;5065986;28;20205;-88
2022/08/15 06:06:10;;;;;;;12.10;8.23;;;17.20;99.90;18.90;95934.00;;;;5077460;28;20200;-88
2022/08/15 06:09:06;;;;;;;10.83;8.50;;;17.40;99.90;18.80;95932.00;;;;5064068;28;20212;-90
2022/08/15 06:11:56;;;;;;;9.93;8.80;;;17.60;99.90;19.10;95933.00;;;;5058145;28;20264;-90
2022/08/15 06:14:48;;;;;;;9.53;8.63;;;17.70;99.90;19.50;95934.00;;;;5060851;28;20211;-89
2022/08/15 06:17:42;;;;;;;9.63;8.57;;;17.90;99.90;19.80;95934.00;;;;5061158;28;20228;-89
2022/08/15 06:20:38;;;;;;;9.00;7.97;;;18.10;99.90;19.90;95939.00;;;;5071184;28;20251;-89
2022/08/15 06:23:42;;;;;;;9.77;8.43;;;18.30;99.90;20.10;95935.00;;;;5065347;28;20215;-89
2022/08/15 06:26:49;;;;;;;9.40;7.93;;;18.50;99.90;20.30;95927.00;;;;5064280;28;20196;-88
2022/08/15 06:29:54;;;;;;;9.73;7.63;;;18.70;99.90;20.40;95935.00;;;;5069930;28;20224;-88
2022/08/15 06:32:52;;;;;;;9.70;8.47;;;18.90;99.90;20.80;95933.00;;;;5064214;28;20200;-89
2022/08/15 06:35:50;;;;;;;9.13;8.13;;;19.10;99.90;20.90;95928.00;;;;5071956;28;20208;-89
2022/08/15 06:38:50;;;;;;;11.43;7.87;;;19.30;99.90;21.30;95932.00;;;;5073979;28;20213;-89
2022/08/15 06:41:50;;;;;;;9.63;8.63;;;19.50;99.90;21.50;95936.00;;;;5069494;28;20196;-88
2022/08/15 06:44:39;;;;;;;7.67;6.97;;;19.70;99.90;21.80;95939.00;;;;5073178;28;20665;-89
2022/08/15 06:47:28;;;;;;;10.93;6.93;;;20.00;99.90;21.90;95932.00;;;;5074587;28;20546;-89
2022/08/15 06:50:22;;;;;;;7.87;6.40;;;20.20;99.90;22.50;95933.00;;;;5077187;28;20223;-88
2022/08/15 06:53:16;;;;;;;8.33;7.37;;;20.40;99.90;22.70;95936.00;;;;5079098;28;20199;-88
2022/08/15 06:56:11;;;;;;;7.83;7.03;;;20.60;99.90;22.90;95934.00;;;;5071871;28;20200;-89
2022/08/15 06:59:06;;;;;;;9.73;8.60;;;20.90;99.90;23.20;95935.00;;;;5068580;28;20610;-89
2022/08/15 07:02:05;;;;;;;9.77;6.87;;;21.10;99.90;23.30;95932.00;;;;5066016;28;20208;-88
2022/08/15 07:05:07;;;;;;;7.30;6.50;;;21.30;99.90;23.50;95934.00;;;;5070188;28;20204;-88
2022/08/15 07:08:05;;;;;;;8.47;6.70;;;21.50;99.90;23.70;95933.00;;;;5067711;28;20653;-89
2022/08/15 07:10:59;;;;;;;7.63;6.57;;;21.80;99.90;23.60;95939.00;;;;5070851;28;20224;-89
2022/08/15 07:14:08;;;;;;;6.97;6.27;;;22.00;99.90;23.80;95934.00;;;;5062878;28;20258;-89
2022/08/15 07:17:06;;;;;;;7.20;6.50;;;22.10;99.90;23.80;95937.00;;;;5067743;28;20199;-90
2022/08/15 07:19:56;;;;;;;7.80;6.60;;;22.20;99.90;24.00;95943.00;;;;5069628;28;20227;-91
2022/08/15 07:22:47;;;;;;;8.47;6.90;;;22.30;99.90;23.90;95938.00;;;;5061161;28;20230;-90
2022/08/15 07:25:38;;;;;;;6.53;5.93;;;22.40;99.90;24.10;95944.00;;;;5067412;28;20192;-90
2022/08/15 07:28:30;;;;;;;7.50;6.67;;;22.50;99.90;24.60;95947.00;;;;5084551;28;20210;-90
2022/08/15 07:31:29;;;;;;;7.17;6.47;;;22.70;99.90;24.60;95945.00;;;;5051882;28;20254;-90
2022/08/15 07:34:22;;;;;;;7.20;6.50;;;22.80;99.90;24.90;95941.00;;;;5067750;28;20208;-90
2022/08/15 07:37:20;;;;;;;7.00;6.30;;;23.00;99.90;24.90;95946.00;;;;5058771;28;20188;-90
2022/08/15 07:40:20;;;;;;;7.63;6.00;;;23.20;99.90;24.90;95945.00;;;;5066623;28;20238;-90
2022/08/15 07:43:28;;;;;;;7.27;5.37;;;23.30;99.90;25.60;95942.00;;;;5073383;28;20196;-90
2022/08/15 07:46:20;;;;;;;6.10;5.53;;;23.50;99.90;25.50;95940.00;;;;5056865;28;20208;-91
2022/08/15 07:49:18;;;;;;;7.63;5.70;;;23.60;99.90;25.90;95939.00;;;;5069516;28;20224;-89
2022/08/15 07:52:21;;;;;;;6.23;5.73;;;23.80;99.90;26.10;95934.00;;;;5062662;28;20216;-90
2022/08/15 07:55:30;;;;;;;7.13;6.40;;;24.10;99.90;26.00;95938.00;;;;5060251;28;20782;-89
2022/08/15 07:58:24;;;;;;;5.73;5.13;;;24.30;99.90;26.60;95947.00;;;;5070777;28;20685;-89
2022/08/15 08:01:16;;;;;;;8.37;6.03;;;24.40;99.90;26.70;95936.00;;;;5068055;28;20220;-88
2022/08/15 08:04:19;;;;;;;5.77;5.17;;;24.60;99.90;26.70;95932.00;;;;5068582;28;20196;-89
2022/08/15 08:07:20;;;;;;;5.87;5.37;;;24.70;99.90;26.90;95928.00;;;;5057186;28;20205;-90
2022/08/15 08:10:17;;;;;;;5.97;5.40;;;24.90;99.90;27.00;95925.00;;;;5064603;28;20230;-90
2022/08/15 08:13:35;;;;;;;6.40;5.73;;;25.00;99.90;27.30;95931.00;;;;5067254;28;20200;-90
2022/08/15 08:16:30;;;;;;;5.87;5.37;;;25.20;99.90;27.40;95934.00;;;;5064207;28;20206;-91
2022/08/15 08:19:32;;;;;;;5.37;4.97;;;25.40;99.90;27.50;95938.00;;;;5068866;28;20740;-89
2022/08/15 08:22:29;;;;;;;6.17;5.67;;;25.50;99.90;27.40;95937.00;;;;5064460;28;20206;-90
2022/08/15 08:25:27;;;;;;;6.57;4.97;;;25.60;99.90;28.00;95944.00;;;;5061226;28;20196;-89
2022/08/15 08:28:38;;;;;;;5.80;5.30;;;25.80;99.90;28.00;95937.00;;;;5063943;28;20201;-88
2022/08/15 08:31:40;;;;;;;5.50;5.00;;;25.90;99.90;28.20;95933.00;;;;5062197;28;20202;-89
2022/08/15 08:34:40;;;;;;;4.63;4.17;;;26.10;99.70;28.50;95935.00;;;;5069874;28;20682;-90
2022/08/15 08:37:44;;;;;;;5.67;5.17;;;26.30;98.50;28.70;95932.00;;;;5062640;28;20199;-89
2022/08/15 08:44:07;;;;;;;5.13;4.73;;;26.70;98.00;29.30;95929.00;;;;5061919;28;20720;-90
2022/08/15 08:47:21;;;;;;;4.80;4.37;;;26.90;97.50;29.50;95931.00;;;;5069875;28;20213;-88
2022/08/15 08:50:26;;;;;;;5.20;4.80;;;27.10;96.60;29.60;95930.00;;;;5069041;28;20234;-89
2022/08/15 08:53:29;;;;;;;5.33;4.93;;;27.30;95.40;29.90;95928.00;;;;5060778;28;20213;-89
2022/08/15 08:56:23;;;;;;;4.90;4.50;;;27.50;95.40;30.10;95924.00;;;;5058046;28;20214;-90
2022/08/15 08:59:22;;;;;;;4.93;4.53;;;27.70;92.40;30.10;95926.00;;;;5072415;28;20239;-89
2022/08/15 09:02:19;;;;;;;6.70;4.90;;;27.90;92.80;30.40;95925.00;;;;5066831;28;20204;-89
2022/08/15 09:05:18;;;;;;;5.63;4.93;;;28.00;92.60;30.50;95919.00;;;;5082341;28;20669;-88
2022/08/15 09:08:15;;;;;;;5.10;4.60;;;28.20;91.30;30.60;95916.00;;;;5069586;28;20206;-90
2022/08/15 09:11:08;;;;;;;9.43;4.87;;;28.30;91.10;30.60;95913.00;;;;5056485;28;20223;-89
2022/08/15 09:14:05;;;;;;;6.43;4.67;;;28.50;89.60;31.00;95910.00;;;;5068554;28;20204;-90
2022/08/15 09:16:59;;;;;;;4.80;3.90;;;28.60;89.30;30.60;95908.00;;;;5067523;28;20200;-90
2022/08/15 09:20:08;;;;;;;5.50;4.40;;;28.80;88.80;31.00;95901.00;;;;5069458;28;20230;-89
2022/08/15 09:22:57;;;;;;;4.23;3.63;;;28.80;86.60;30.80;95904.00;;;;5078795;28;20198;-91
2022/08/15 09:25:57;;;;;;;3.93;3.57;;;28.90;86.80;30.00;95893.00;;;;5071276;28;20210;-88
2022/08/15 09:29:00;;;;;;;5.20;4.70;;;29.00;80.50;31.10;95898.00;;;;5076395;28;20672;-88
2022/08/15 09:32:10;;;;;;;5.90;4.10;;;29.00;79.10;31.10;95899.00;;;;5071361;28;20667;-90
2022/08/15 09:35:24;;;;;;;5.23;3.77;;;29.10;80.10;31.50;95892.00;;;;5063897;28;20573;-89
2022/08/15 09:38:31;;;;;;;4.97;3.73;;;29.30;77.60;31.70;95887.00;;;;5069964;28;20194;-90
2022/08/15 09:41:51;;;;;;;3.57;3.27;;;29.40;76.50;31.20;95889.00;;;;5068839;28;20215;-90
2022/08/15 09:45:02;;;;;;;3.33;3.03;;;29.50;74.90;31.50;95882.00;;;;5054833;28;20207;-89
2022/08/15 09:48:28;;;;;;;4.95;3.60;;;29.60;73.20;32.40;95881.00;;;;5067939;28;20203;-89
2022/08/15 09:51:35;;;;;;;4.05;3.75;;;29.90;73.10;32.60;95895.00;;;;5063819;28;20202;-90
2022/08/15 09:54:26;;;;;;;3.50;3.20;;;30.20;71.60;32.90;95885.00;;;;5064837;28;20223;-91
2022/08/15 09:57:31;;;;;;;4.68;3.88;;;30.40;72.00;32.60;95885.00;;;;5069820;28;20207;-91
2022/08/15 10:00:44;;;;;;;4.28;3.88;;;30.60;69.40;33.50;95887.00;;;;5067763;28;20228;-90
2022/08/15 10:04:00;;;;;;;3.97;3.50;;;30.80;69.00;33.70;95883.00;;;;5059373;28;20389;-90
2022/08/15 10:07:43;;;;;;;6.72;3.42;;;31.10;68.60;33.80;95879.00;;;;5065767;28;20213;-91
2022/08/15 10:10:53;;;;;;;9.13;5.20;;;31.40;68.40;32.30;95883.00;;;;5072432;28;20718;-88
2022/08/15 10:13:48;;;;;;;5.88;4.43;;;31.20;65.70;31.60;95874.00;;;;5061121;28;20690;-91
2022/08/15 10:16:47;;;;;;;5.25;4.60;;;30.80;66.30;32.50;95878.00;;;;5064063;28;20197;-91
2022/08/15 10:19:39;;;;;;;5.40;4.90;;;30.80;67.50;33.60;95869.00;;;;5061588;28;20276;-90
2022/08/15 10:22:57;;;;;;;7.07;6.38;;;31.00;69.40;32.90;95868.00;;;;5070275;28;20913;-90
2022/08/15 10:25:48;;;;;;;6.00;5.03;;;31.10;69.80;33.50;95873.00;;;;5070495;28;20206;-89
2022/08/15 10:28:40;;;;;;;5.05;4.63;;;31.30;69.80;34.30;95868.00;;;;5067283;28;20206;-89
2022/08/15 10:31:38;;;;;;;4.85;4.45;;;31.60;70.30;34.70;95855.00;;;;5092180;28;20191;-90
2022/08/15 10:34:37;;;;;;;5.20;4.75;;;31.90;69.60;34.30;95857.00;;;;5093558;28;20194;-89
2022/08/15 10:37:31;;;;;;;5.45;4.95;;;32.10;68.60;34.40;95854.00;;;;5080991;28;20211;-90
2022/08/15 10:40:54;;;;;;;5.75;5.25;;;32.30;67.60;34.60;95860.00;;;;5066361;28;20220;-90
2022/08/15 10:43:58;;;;;;;5.88;4.60;;;32.50;65.80;35.20;95875.00;;;;5067223;28;20199;-90
2022/08/15 10:47:02;;;;;;;4.97;4.45;;;32.70;65.40;35.00;95868.00;;;;5064799;28;20577;-90
2022/08/15 10:50:12;;;;;;;5.22;4.72;;;32.80;62.90;34.70;95866.00;;;;5059785;28;20241;-90
2022/08/15 10:53:17;;;;;;;5.43;4.93;;;32.90;61.60;35.50;95859.00;;;;5066646;28;20207;-88
2022/08/15 10:56:16;;;;;;;4.63;4.22;;;33.00;61.10;35.60;95867.00;;;;5068320;28;20206;-87
2022/08/15 10:59:10;;;;;;;3.78;3.35;;;33.20;60.70;36.10;95869.00;;;;5064254;28;20199;-88
2022/08/15 11:02:17;;;;;;;4.05;3.75;;;33.40;59.50;35.70;95857.00;;;;5061740;28;20211;-88
2022/08/15 11:05:09;;;;;;;4.80;4.35;;;33.60;58.60;35.60;95850.00;;;;5070151;28;20229;-88
2022/08/15 11:07:58;;;;;;;3.80;3.50;;;33.60;56.90;35.80;95865.00;;;;5066696;28;20578;-87
2022/08/15 11:10:49;;;;;;;3.65;3.35;;;33.70;56.30;36.00;95857.00;;;;5080766;28;20216;-87
2022/08/15 11:13:42;;;;;;;4.43;4.03;;;33.70;57.20;36.30;95857.00;;;;5065873;28;20219;-88
2022/08/15 11:16:36;;;;;;;4.55;3.80;;;33.80;56.80;36.10;95857.00;;;;5067394;28;20201;-87
2022/08/15 11:19:30;;;;;;;4.97;3.70;;;33.80;54.70;36.80;95846.00;;;;5054207;28;20766;-88
2022/08/15 11:22:31;;;;;;;3.80;3.50;;;34.10;55.60;37.60;95839.00;;;;5069011;28;20198;-87
2022/08/15 11:25:27;;;;;;;3.90;3.50;;;34.30;56.10;37.10;95840.00;;;;5067064;28;20199;-88
2022/08/15 11:28:22;;;;;;;3.50;3.10;;;34.70;54.50;38.00;95851.00;;;;5073270;28;20204;-88
2022/08/15 11:31:21;;;;;;;3.90;3.60;;;35.00;55.10;37.10;95851.00;;;;5066464;28;20400;-88
2022/08/15 11:34:27;;;;;;;3.13;2.92;;;35.00;52.50;37.40;95881.00;;;;5070128;28;20203;-88
2022/08/15 11:37:35;;;;;;;3.80;3.50;;;35.00;54.50;35.40;95886.00;;;;5074008;28;20192;-92
2022/08/15 11:40:30;;;;;;;3.40;3.20;;;34.80;51.70;35.50;95850.00;;;;5083426;28;20241;-94
2022/08/15 11:43:21;;;;;;;3.75;3.53;;;34.80;51.50;36.90;95868.00;;;;5069072;28;20199;-93
2022/08/15 11:46:10;;;;;;;4.65;3.53;;;34.50;53.40;36.70;95871.00;;;;5065280;28;20200;-91
2022/08/15 11:49:08;;;;;;;3.78;3.47;;;34.50;53.60;36.00;95898.00;;;;5059892;28;20191;-92
2022/08/15 11:52:05;;;;;;;4.45;3.40;;;34.30;53.80;35.80;95891.00;;;;5066832;28;20195;-92
2022/08/15 11:55:20;;;;;;;5.05;3.15;;;34.20;54.70;35.30;95888.00;;;;5057441;28;20220;-92
2022/08/15 11:58:23;;;;;;;3.90;3.60;;;34.00;53.80;35.80;95899.00;;;;5061142;28;20208;-92
2022/08/15 12:01:28;;;;;;;4.75;4.35;;;33.80;54.90;36.00;95885.00;;;;5051670;28;20227;-90
2022/08/15 12:04:31;;;;;;;3.80;3.35;;;33.80;55.10;36.00;95838.00;;;;5065836;28;20210;-91
2022/08/15 12:07:25;;;;;;;3.33;3.03;;;33.80;54.40;36.40;95883.00;;;;5060517;28;20589;-92
2022/08/15 12:10:30;;;;;;;4.07;3.78;;;34.00;54.80;36.20;95849.00;;;;5071362;28;20230;-91
2022/08/15 12:13:25;;;;;;;3.47;3.22;;;34.10;53.80;37.90;95843.00;;;;5060095;28;20579;-91
2022/08/15 12:16:26;;;;;;;3.22;2.95;;;34.50;55.00;39.00;95833.00;;;;5061204;28;20203;-91
2022/08/15 12:19:31;;;;;;;3.47;3.17;;;35.10;55.00;39.50;95831.00;;;;5060191;28;20220;-91
2022/08/15 12:22:31;;;;;;;4.05;3.75;;;35.80;53.80;39.70;95849.00;;;;5063762;28;20211;-90
2022/08/15 12:25:20;;;;;;;4.60;3.53;;;36.30;52.50;39.50;95878.00;;;;5064585;28;20208;-91
2022/08/15 12:28:25;;;;;;;3.58;3.28;;;36.60;51.70;40.00;95844.00;;;;5066901;28;20199;-90
2022/08/15 12:31:25;;;;;;;5.55;3.50;;;36.90;50.70;40.00;95832.00;;;;5066001;28;20200;-91
2022/08/15 12:34:17;;;;;;;4.93;3.33;;;37.30;49.80;40.50;95836.00;;;;5065306;28;20208;-92
2022/08/15 12:37:12;;;;;;;4.40;3.30;;;37.50;50.00;41.10;95833.00;;;;5067556;28;20210;-90
2022/08/15 12:40:06;;;;;;;3.60;3.30;;;37.90;50.30;40.20;95828.00;;;;5066196;28;20223;-90
2022/08/15 12:42:59;;;;;;;3.40;3.20;;;38.20;48.20;40.20;95832.00;;;;5060569;28;20214;-87
2022/08/15 12:45:48;;;;;;;3.58;3.13;;;38.00;47.30;39.20;95823.00;;;;5053976;28;20196;-87
2022/08/15 12:48:39;;;;;;;3.72;3.42;;;37.70;48.00;39.80;95831.00;;;;5070510;28;20207;-87
2022/08/15 12:51:28;;;;;;;3.60;3.30;;;37.60;47.30;39.80;95823.00;;;;5061188;28;20542;-87
2022/08/15 12:54:18;;;;;;;2.90;2.70;;;37.60;48.10;40.30;95824.00;;;;5064812;28;20214;-87
2022/08/15 12:57:07;;;;;;;6.00;3.00;;;37.70;48.50;39.80;95831.00;;;;5062497;28;20195;-87
2022/08/15 12:59:59;;;;;;;4.40;2.72;;;37.60;46.70;40.50;95827.00;;;;5059498;28;20220;-86